sensor_id;sensor_type;location;lat;lon;timestamp;temperature;humidity
28484;DHT22;15704;48.834;8.736;2023-07-13T00:01:54;17.30;99.90
28484;DHT22;15704;48.834;8.736;2023-07-13T00:04:23;17.20;99.90
28484;DHT22;15704;48.834;8.736;2023-07-13T00:06:52;17.20;99.90
28484;DHT22;15704;48.834;8.736;2023-07-13T00:09:20;17.10;99.90
28484;DHT22;15704;48.834;8.736;2023-07-13T00:11:53;17.10;99.90
28484;DHT22;15704;48.834;8.736;2023-07-13T00:14:20;17.10;99.90
28484;DHT22;15704;48.834;8.736;2023-07-13T00:16:47;16.90;99.90
28484;DHT22;15704;48.834;8.736;2023-07-13T00:19:14;17.00;99.90
28484;DHT22;15704;48.834;8.736;2023-07-13T00:21:41;16.90;99.90
28484;DHT22;15704;48.834;8.736;2023-07-13T00:24:11;16.90;99.90
28484;DHT22;15704;48.834;8.736;2023-07-13T00:26:42;16.90;99.90
28484;DHT22;15704;48.834;8.736;2023-07-13T00:29:12;16.90;99.90
28484;DHT22;15704;48.834;8.736;2023-07-13T00:31:40;16.80;99.90
28484;DHT22;15704;48.834;8.736;2023-07-13T00:34:07;16.80;99.90
28484;DHT22;15704;48.834;8.736;2023-07-13T00:36:34;16.70;99.90
28484;DHT22;15704;48.834;8.736;2023-07-13T00:39:00;16.70;99.90
28484;DHT22;15704;48.834;8.736;2023-07-13T00:41:27;16.60;99.90
28484;DHT22;15704;48.834;8.736;2023-07-13T00:43:54;16.60;99.90
28484;DHT22;15704;48.834;8.736;2023-07-13T00:46:30;16.60;99.90
28484;DHT22;15704;48.834;8.736;2023-07-13T00:49:01;16.60;99.90
28484;DHT22;15704;48.834;8.736;2023-07-13T00:51:34;16.50;99.90
28484;DHT22;15704;48.834;8.736;2023-07-13T00:54:07;16.50;99.90
28484;DHT22;15704;48.834;8.736;2023-07-13T00:56:35;16.40;99.90
28484;DHT22;15704;48.834;8.736;2023-07-13T00:59:05;16.30;99.90
28484;DHT22;15704;48.834;8.736;2023-07-13T01:01:33;16.30;99.90
28484;DHT22;15704;48.834;8.736;2023-07-13T01:04:00;16.20;99.90
28484;DHT22;15704;48.834;8.736;2023-07-13T01:06:27;16.20;99.90
28484;DHT22;15704;48.834;8.736;2023-07-13T01:08:56;16.10;99.90
28484;DHT22;15704;48.834;8.736;2023-07-13T01:11:24;16.00;99.90
28484;DHT22;15704;48.834;8.736;2023-07-13T01:13:51;16.00;99.90
28484;DHT22;15704;48.834;8.736;2023-07-13T01:16:24;16.00;99.90
28484;DHT22;15704;48.834;8.736;2023-07-13T01:18:51;16.00;99.90
28484;DHT22;15704;48.834;8.736;2023-07-13T01:21:18;16.00;99.90
28484;DHT22;15704;48.834;8.736;2023-07-13T01:23:45;15.90;99.90
28484;DHT22;15704;48.834;8.736;2023-07-13T01:26:12;15.80;99.90
28484;DHT22;15704;48.834;8.736;2023-07-13T01:28:39;15.80;99.90
28484;DHT22;15704;48.834;8.736;2023-07-13T01:31:06;15.80;99.90
28484;DHT22;15704;48.834;8.736;2023-07-13T01:33:33;15.70;99.90
28484;DHT22;15704;48.834;8.736;2023-07-13T01:36:00;15.70;99.90
28484;DHT22;15704;48.834;8.736;2023-07-13T01:38:28;15.70;99.90
28484;DHT22;15704;48.834;8.736;2023-07-13T01:40:55;15.70;99.90
28484;DHT22;15704;48.834;8.736;2023-07-13T01:43:22;15.70;99.90
28484;DHT22;15704;48.834;8.736;2023-07-13T01:45:49;15.70;99.90
28484;DHT22;15704;48.834;8.736;2023-07-13T01:48:15;15.70;99.90
28484;DHT22;15704;48.834;8.736;2023-07-13T01:50:42;15.70;99.90
28484;DHT22;15704;48.834;8.736;2023-07-13T01:53:09;15.60;99.90
28484;DHT22;15704;48.834;8.736;2023-07-13T01:55:36;15.60;99.90
28484;DHT22;15704;48.834;8.736;2023-07-13T01:58:04;15.60;99.90
28484;DHT22;15704;48.834;8.736;2023-07-13T02:00:31;15.50;99.90
28484;DHT22;15704;48.834;8.736;2023-07-13T02:02:59;15.50;99.90
28484;DHT22;15704;48.834;8.736;2023-07-13T02:05:26;15.40;99.90
28484;DHT22;15704;48.834;8.736;2023-07-13T02:07:53;15.40;99.90
28484;DHT22;15704;48.834;8.736;2023-07-13T02:10:19;15.40;99.90
28484;DHT22;15704;48.834;8.736;2023-07-13T02:12:48;15.30;99.90
28484;DHT22;15704;48.834;8.736;2023-07-13T02:15:15;15.30;99.90
28484;DHT22;15704;48.834;8.736;2023-07-13T02:17:42;15.30;99.90
28484;DHT22;15704;48.834;8.736;2023-07-13T02:20:09;15.30;99.90
28484;DHT22;15704;48.834;8.736;2023-07-13T02:22:36;15.20;99.90
28484;DHT22;15704;48.834;8.736;2023-07-13T02:25:03;15.20;99.90
28484;DHT22;15704;48.834;8.736;2023-07-13T02:27:30;15.20;99.90
28484;DHT22;15704;48.834;8.736;2023-07-13T02:29:57;15.30;99.90
28484;DHT22;15704;48.834;8.736;2023-07-13T02:32:23;15.30;99.90
28484;DHT22;15704;48.834;8.736;2023-07-13T02:34:52;15.30;99.90
28484;DHT22;15704;48.834;8.736;2023-07-13T02:37:19;15.30;99.90
28484;DHT22;15704;48.834;8.736;2023-07-13T02:39:46;15.30;99.90
28484;DHT22;15704;48.834;8.736;2023-07-13T02:42:14;15.30;99.90
28484;DHT22;15704;48.834;8.736;2023-07-13T02:44:41;15.40;99.90
28484;DHT22;15704;48.834;8.736;2023-07-13T02:47:08;15.40;99.90
28484;DHT22;15704;48.834;8.736;2023-07-13T02:49:34;15.40;99.90
28484;DHT22;15704;48.834;8.736;2023-07-13T02:52:02;15.30;99.90
28484;DHT22;15704;48.834;8.736;2023-07-13T02:54:29;15.30;99.90
28484;DHT22;15704;48.834;8.736;2023-07-13T02:56:56;15.30;99.90
28484;DHT22;15704;48.834;8.736;2023-07-13T02:59:22;15.30;99.90
28484;DHT22;15704;48.834;8.736;2023-07-13T03:01:49;15.20;99.90
28484;DHT22;15704;48.834;8.736;2023-07-13T03:04:16;15.20;99.90
28484;DHT22;15704;48.834;8.736;2023-07-13T03:06:46;15.20;99.90
28484;DHT22;15704;48.834;8.736;2023-07-13T03:09:13;15.10;99.90
28484;DHT22;15704;48.834;8.736;2023-07-13T03:11:40;15.10;99.90
28484;DHT22;15704;48.834;8.736;2023-07-13T03:14:08;15.00;99.90
28484;DHT22;15704;48.834;8.736;2023-07-13T03:16:35;15.00;99.90
28484;DHT22;15704;48.834;8.736;2023-07-13T03:19:01;15.00;99.90
28484;DHT22;15704;48.834;8.736;2023-07-13T03:21:28;15.00;99.90
28484;DHT22;15704;48.834;8.736;2023-07-13T03:23:55;15.00;99.90
28484;DHT22;15704;48.834;8.736;2023-07-13T03:26:22;15.00;99.90
28484;DHT22;15704;48.834;8.736;2023-07-13T03:28:49;14.90;99.90
28484;DHT22;15704;48.834;8.736;2023-07-13T03:31:19;14.90;99.90
28484;DHT22;15704;48.834;8.736;2023-07-13T03:33:46;14.90;99.90
28484;DHT22;15704;48.834;8.736;2023-07-13T03:36:18;14.80;99.90
28484;DHT22;15704;48.834;8.736;2023-07-13T03:38:50;14.90;99.90
28484;DHT22;15704;48.834;8.736;2023-07-13T03:41:17;14.80;99.90
28484;DHT22;15704;48.834;8.736;2023-07-13T03:43:44;14.90;99.90
28484;DHT22;15704;48.834;8.736;2023-07-13T03:46:11;15.00;99.90
28484;DHT22;15704;48.834;8.736;2023-07-13T03:48:38;15.10;99.90
28484;DHT22;15704;48.834;8.736;2023-07-13T03:51:06;15.10;99.90
28484;DHT22;15704;48.834;8.736;2023-07-13T03:53:34;15.20;99.90
28484;DHT22;15704;48.834;8.736;2023-07-13T03:56:01;15.30;99.90
28484;DHT22;15704;48.834;8.736;2023-07-13T03:58:37;15.30;99.90
28484;DHT22;15704;48.834;8.736;2023-07-13T04:01:06;15.30;99.90
28484;DHT22;15704;48.834;8.736;2023-07-13T04:03:34;15.40;99.90
28484;DHT22;15704;48.834;8.736;2023-07-13T04:06:02;15.40;99.90
28484;DHT22;15704;48.834;8.736;2023-07-13T04:08:31;15.40;99.90
28484;DHT22;15704;48.834;8.736;2023-07-13T04:10:58;15.40;99.90
28484;DHT22;15704;48.834;8.736;2023-07-13T04:13:26;15.40;99.90
28484;DHT22;15704;48.834;8.736;2023-07-13T04:15:54;15.50;99.90
28484;DHT22;15704;48.834;8.736;2023-07-13T04:18:21;15.50;99.90
28484;DHT22;15704;48.834;8.736;2023-07-13T04:20:49;15.60;99.90
28484;DHT22;15704;48.834;8.736;2023-07-13T04:23:17;15.80;99.90
28484;DHT22;15704;48.834;8.736;2023-07-13T04:25:47;15.90;99.90
28484;DHT22;15704;48.834;8.736;2023-07-13T04:28:16;16.00;99.90
28484;DHT22;15704;48.834;8.736;2023-07-13T04:30:44;16.20;99.90
28484;DHT22;15704;48.834;8.736;2023-07-13T04:33:11;16.40;99.90
28484;DHT22;15704;48.834;8.736;2023-07-13T04:35:38;16.50;99.90
28484;DHT22;15704;48.834;8.736;2023-07-13T04:38:05;16.50;99.90
28484;DHT22;15704;48.834;8.736;2023-07-13T04:40:32;16.40;99.90
28484;DHT22;15704;48.834;8.736;2023-07-13T04:42:59;16.60;99.90
28484;DHT22;15704;48.834;8.736;2023-07-13T04:45:26;16.70;99.90
28484;DHT22;15704;48.834;8.736;2023-07-13T04:47:53;16.90;99.90
28484;DHT22;15704;48.834;8.736;2023-07-13T04:50:20;17.30;99.90
28484;DHT22;15704;48.834;8.736;2023-07-13T04:52:52;19.10;99.90
28484;DHT22;15704;48.834;8.736;2023-07-13T04:55:20;23.20;97.00
28484;DHT22;15704;48.834;8.736;2023-07-13T04:57:47;27.20;87.60
28484;DHT22;15704;48.834;8.736;2023-07-13T05:00:14;29.00;78.10
28484;DHT22;15704;48.834;8.736;2023-07-13T05:02:44;28.50;73.40
28484;DHT22;15704;48.834;8.736;2023-07-13T05:05:11;26.60;77.20
28484;DHT22;15704;48.834;8.736;2023-07-13T05:07:38;24.60;81.80
28484;DHT22;15704;48.834;8.736;2023-07-13T05:10:05;22.80;88.00
28484;DHT22;15704;48.834;8.736;2023-07-13T05:12:32;21.90;90.00
28484;DHT22;15704;48.834;8.736;2023-07-13T05:14:59;21.10;91.80
28484;DHT22;15704;48.834;8.736;2023-07-13T05:17:25;20.50;93.20
28484;DHT22;15704;48.834;8.736;2023-07-13T05:19:52;19.90;93.80
28484;DHT22;15704;48.834;8.736;2023-07-13T05:22:19;19.60;94.70
28484;DHT22;15704;48.834;8.736;2023-07-13T05:24:46;19.50;94.80
28484;DHT22;15704;48.834;8.736;2023-07-13T05:27:13;19.50;94.70
28484;DHT22;15704;48.834;8.736;2023-07-13T05:29:39;19.30;95.40
28484;DHT22;15704;48.834;8.736;2023-07-13T05:32:06;19.30;95.00
28484;DHT22;15704;48.834;8.736;2023-07-13T05:34:33;19.20;95.00
28484;DHT22;15704;48.834;8.736;2023-07-13T05:37:00;19.20;95.60
28484;DHT22;15704;48.834;8.736;2023-07-13T05:39:27;19.30;95.60
28484;DHT22;15704;48.834;8.736;2023-07-13T05:41:54;19.30;95.60
28484;DHT22;15704;48.834;8.736;2023-07-13T05:44:21;19.30;95.60
28484;DHT22;15704;48.834;8.736;2023-07-13T05:46:47;19.20;95.50
28484;DHT22;15704;48.834;8.736;2023-07-13T05:49:14;19.20;96.20
28484;DHT22;15704;48.834;8.736;2023-07-13T05:51:41;19.20;95.50
28484;DHT22;15704;48.834;8.736;2023-07-13T05:54:07;19.00;95.60
28484;DHT22;15704;48.834;8.736;2023-07-13T05:56:34;19.00;96.10
28484;DHT22;15704;48.834;8.736;2023-07-13T05:59:01;18.80;95.90
28484;DHT22;15704;48.834;8.736;2023-07-13T06:01:30;19.10;95.80
28484;DHT22;15704;48.834;8.736;2023-07-13T06:03:57;19.00;95.40
28484;DHT22;15704;48.834;8.736;2023-07-13T06:06:24;19.10;96.00
28484;DHT22;15704;48.834;8.736;2023-07-13T06:08:51;19.30;95.60
28484;DHT22;15704;48.834;8.736;2023-07-13T06:11:23;19.30;95.40
28484;DHT22;15704;48.834;8.736;2023-07-13T06:13:51;19.20;95.30
28484;DHT22;15704;48.834;8.736;2023-07-13T06:16:18;19.30;95.40
28484;DHT22;15704;48.834;8.736;2023-07-13T06:18:45;19.40;94.40
28484;DHT22;15704;48.834;8.736;2023-07-13T06:21:16;19.30;94.60
28484;DHT22;15704;48.834;8.736;2023-07-13T06:23:44;19.30;94.50
28484;DHT22;15704;48.834;8.736;2023-07-13T06:26:11;19.20;94.50
28484;DHT22;15704;48.834;8.736;2023-07-13T06:28:38;19.20;95.30
28484;DHT22;15704;48.834;8.736;2023-07-13T06:31:08;19.20;94.70
28484;DHT22;15704;48.834;8.736;2023-07-13T06:33:36;19.30;94.90
28484;DHT22;15704;48.834;8.736;2023-07-13T06:36:04;19.30;95.10
28484;DHT22;15704;48.834;8.736;2023-07-13T06:38:31;19.40;95.60
28484;DHT22;15704;48.834;8.736;2023-07-13T06:40:58;19.50;95.10
28484;DHT22;15704;48.834;8.736;2023-07-13T06:43:25;19.30;94.70
28484;DHT22;15704;48.834;8.736;2023-07-13T06:45:54;19.30;94.50
28484;DHT22;15704;48.834;8.736;2023-07-13T06:48:27;19.30;94.90
28484;DHT22;15704;48.834;8.736;2023-07-13T06:50:54;19.20;94.30
28484;DHT22;15704;48.834;8.736;2023-07-13T06:53:22;19.20;92.90
28484;DHT22;15704;48.834;8.736;2023-07-13T06:55:49;19.00;93.40
28484;DHT22;15704;48.834;8.736;2023-07-13T06:58:17;19.20;93.90
28484;DHT22;15704;48.834;8.736;2023-07-13T07:00:45;19.30;94.40
28484;DHT22;15704;48.834;8.736;2023-07-13T07:03:12;19.50;94.10
28484;DHT22;15704;48.834;8.736;2023-07-13T07:05:39;19.40;93.00
28484;DHT22;15704;48.834;8.736;2023-07-13T07:08:06;19.20;94.30
28484;DHT22;15704;48.834;8.736;2023-07-13T07:10:34;19.20;92.80
28484;DHT22;15704;48.834;8.736;2023-07-13T07:13:01;19.40;92.70
28484;DHT22;15704;48.834;8.736;2023-07-13T07:15:28;19.20;92.60
28484;DHT22;15704;48.834;8.736;2023-07-13T07:17:55;19.30;91.90
28484;DHT22;15704;48.834;8.736;2023-07-13T07:20:22;19.40;92.90
28484;DHT22;15704;48.834;8.736;2023-07-13T07:22:48;19.40;93.20
28484;DHT22;15704;48.834;8.736;2023-07-13T07:25:15;19.40;92.10
28484;DHT22;15704;48.834;8.736;2023-07-13T07:27:42;19.40;92.10
28484;DHT22;15704;48.834;8.736;2023-07-13T07:30:12;19.40;91.80
28484;DHT22;15704;48.834;8.736;2023-07-13T07:32:42;19.40;92.00
28484;DHT22;15704;48.834;8.736;2023-07-13T07:35:22;19.30;92.10
28484;DHT22;15704;48.834;8.736;2023-07-13T07:37:49;19.40;92.20
28484;DHT22;15704;48.834;8.736;2023-07-13T07:40:17;19.50;91.40
28484;DHT22;15704;48.834;8.736;2023-07-13T07:42:47;19.50;90.40
28484;DHT22;15704;48.834;8.736;2023-07-13T07:45:14;19.50;87.30
28484;DHT22;15704;48.834;8.736;2023-07-13T07:47:41;19.50;90.10
28484;DHT22;15704;48.834;8.736;2023-07-13T07:50:09;19.60;89.20
28484;DHT22;15704;48.834;8.736;2023-07-13T07:52:36;19.60;91.20
28484;DHT22;15704;48.834;8.736;2023-07-13T07:55:04;19.60;91.70
28484;DHT22;15704;48.834;8.736;2023-07-13T07:57:34;19.50;91.60
28484;DHT22;15704;48.834;8.736;2023-07-13T08:00:21;19.60;92.00
28484;DHT22;15704;48.834;8.736;2023-07-13T08:02:50;19.50;90.50
28484;DHT22;15704;48.834;8.736;2023-07-13T08:05:20;19.70;91.00
28484;DHT22;15704;48.834;8.736;2023-07-13T08:08:05;19.90;91.60
28484;DHT22;15704;48.834;8.736;2023-07-13T08:10:34;19.80;90.90
28484;DHT22;15704;48.834;8.736;2023-07-13T08:13:01;19.80;90.90
28484;DHT22;15704;48.834;8.736;2023-07-13T08:15:31;19.80;90.70
28484;DHT22;15704;48.834;8.736;2023-07-13T08:17:58;19.80;91.00
28484;DHT22;15704;48.834;8.736;2023-07-13T08:20:25;19.90;91.90
28484;DHT22;15704;48.834;8.736;2023-07-13T08:22:52;20.00;90.70
28484;DHT22;15704;48.834;8.736;2023-07-13T08:25:19;20.00;91.30
28484;DHT22;15704;48.834;8.736;2023-07-13T08:27:47;20.00;90.40
28484;DHT22;15704;48.834;8.736;2023-07-13T08:30:14;19.90;90.80
28484;DHT22;15704;48.834;8.736;2023-07-13T08:32:40;19.90;91.10
28484;DHT22;15704;48.834;8.736;2023-07-13T08:35:07;20.10;90.80
28484;DHT22;15704;48.834;8.736;2023-07-13T08:37:34;20.20;90.80
28484;DHT22;15704;48.834;8.736;2023-07-13T08:40:01;20.20;90.50
28484;DHT22;15704;48.834;8.736;2023-07-13T08:42:46;20.00;90.20
28484;DHT22;15704;48.834;8.736;2023-07-13T08:45:46;20.20;90.10
28484;DHT22;15704;48.834;8.736;2023-07-13T08:48:18;20.40;91.20
28484;DHT22;15704;48.834;8.736;2023-07-13T08:50:56;20.40;90.80
28484;DHT22;15704;48.834;8.736;2023-07-13T08:53:37;20.40;90.90
28484;DHT22;15704;48.834;8.736;2023-07-13T08:56:20;20.60;91.30
28484;DHT22;15704;48.834;8.736;2023-07-13T08:58:51;20.70;91.30
28484;DHT22;15704;48.834;8.736;2023-07-13T09:04:20;21.00;90.70
28484;DHT22;15704;48.834;8.736;2023-07-13T09:07:18;21.00;91.40
28484;DHT22;15704;48.834;8.736;2023-07-13T09:14:56;21.10;91.10
28484;DHT22;15704;48.834;8.736;2023-07-13T09:17:35;20.90;90.80
28484;DHT22;15704;48.834;8.736;2023-07-13T09:20:11;21.10;91.10
28484;DHT22;15704;48.834;8.736;2023-07-13T09:22:43;21.00;91.20
28484;DHT22;15704;48.834;8.736;2023-07-13T09:25:21;20.80;91.30
28484;DHT22;15704;48.834;8.736;2023-07-13T09:27:53;20.90;91.20
28484;DHT22;15704;48.834;8.736;2023-07-13T09:30:37;20.80;91.10
28484;DHT22;15704;48.834;8.736;2023-07-13T09:33:05;20.90;91.90
28484;DHT22;15704;48.834;8.736;2023-07-13T09:35:31;21.20;92.60
28484;DHT22;15704;48.834;8.736;2023-07-13T09:38:37;21.40;91.40
28484;DHT22;15704;48.834;8.736;2023-07-13T09:41:18;21.50;91.30
28484;DHT22;15704;48.834;8.736;2023-07-13T09:44:17;21.80;92.00
28484;DHT22;15704;48.834;8.736;2023-07-13T09:46:47;22.00;86.70
28484;DHT22;15704;48.834;8.736;2023-07-13T09:49:18;22.20;82.90
28484;DHT22;15704;48.834;8.736;2023-07-13T09:51:45;22.20;85.10
28484;DHT22;15704;48.834;8.736;2023-07-13T09:54:24;22.20;84.20
28484;DHT22;15704;48.834;8.736;2023-07-13T09:57:01;22.40;85.40
28484;DHT22;15704;48.834;8.736;2023-07-13T09:59:33;22.10;86.10
28484;DHT22;15704;48.834;8.736;2023-07-13T10:02:00;21.70;86.20
28484;DHT22;15704;48.834;8.736;2023-07-13T10:04:32;21.90;89.00
28484;DHT22;15704;48.834;8.736;2023-07-13T10:07:07;21.90;88.30
28484;DHT22;15704;48.834;8.736;2023-07-13T10:09:56;21.80;89.00
28484;DHT22;15704;48.834;8.736;2023-07-13T10:12:24;21.70;89.70
28484;DHT22;15704;48.834;8.736;2023-07-13T10:14:56;21.60;89.70
28484;DHT22;15704;48.834;8.736;2023-07-13T10:17:44;21.70;90.20
28484;DHT22;15704;48.834;8.736;2023-07-13T10:20:11;21.80;88.70
28484;DHT22;15704;48.834;8.736;2023-07-13T10:22:47;21.90;90.10
28484;DHT22;15704;48.834;8.736;2023-07-13T10:25:25;22.10;89.60
28484;DHT22;15704;48.834;8.736;2023-07-13T10:27:54;22.30;88.60
28484;DHT22;15704;48.834;8.736;2023-07-13T10:30:34;22.00;88.20
28484;DHT22;15704;48.834;8.736;2023-07-13T10:33:04;22.00;88.40
28484;DHT22;15704;48.834;8.736;2023-07-13T10:35:35;22.00;87.20
28484;DHT22;15704;48.834;8.736;2023-07-13T10:38:07;22.10;87.60
28484;DHT22;15704;48.834;8.736;2023-07-13T10:43:45;22.50;85.00
28484;DHT22;15704;48.834;8.736;2023-07-13T10:46:15;22.20;84.90
28484;DHT22;15704;48.834;8.736;2023-07-13T10:48:44;22.20;83.90
28484;DHT22;15704;48.834;8.736;2023-07-13T10:51:16;22.30;84.60
28484;DHT22;15704;48.834;8.736;2023-07-13T10:53:43;22.50;84.10
28484;DHT22;15704;48.834;8.736;2023-07-13T10:58:43;22.20;82.00
28484;DHT22;15704;48.834;8.736;2023-07-13T11:01:13;22.30;82.50
28484;DHT22;15704;48.834;8.736;2023-07-13T11:18:52;22.00;80.90
28484;DHT22;15704;48.834;8.736;2023-07-13T11:21:26;22.10;81.80
28484;DHT22;15704;48.834;8.736;2023-07-13T11:24:28;22.30;84.00
28484;DHT22;15704;48.834;8.736;2023-07-13T11:26:55;22.20;84.00
28484;DHT22;15704;48.834;8.736;2023-07-13T11:32:10;22.10;83.90
28484;DHT22;15704;48.834;8.736;2023-07-13T11:34:48;22.20;81.70
28484;DHT22;15704;48.834;8.736;2023-07-13T11:37:17;22.20;80.60
28484;DHT22;15704;48.834;8.736;2023-07-13T11:39:46;22.30;79.40
28484;DHT22;15704;48.834;8.736;2023-07-13T11:42:17;22.30;81.20
28484;DHT22;15704;48.834;8.736;2023-07-13T11:44:47;22.50;82.30
28484;DHT22;15704;48.834;8.736;2023-07-13T11:47:33;22.40;81.80
28484;DHT22;15704;48.834;8.736;2023-07-13T11:50:00;22.50;80.30
28484;DHT22;15704;48.834;8.736;2023-07-13T11:52:36;22.50;79.80
28484;DHT22;15704;48.834;8.736;2023-07-13T11:55:14;22.70;79.20
28484;DHT22;15704;48.834;8.736;2023-07-13T11:57:58;22.80;78.00
28484;DHT22;15704;48.834;8.736;2023-07-13T12:00:29;22.80;78.20
28484;DHT22;15704;48.834;8.736;2023-07-13T12:02:59;22.70;78.40
28484;DHT22;15704;48.834;8.736;2023-07-13T12:05:27;22.90;78.60
28484;DHT22;15704;48.834;8.736;2023-07-13T12:07:54;23.00;79.10
28484;DHT22;15704;48.834;8.736;2023-07-13T12:10:28;23.30;78.70
28484;DHT22;15704;48.834;8.736;2023-07-13T12:13:04;22.90;78.20
28484;DHT22;15704;48.834;8.736;2023-07-13T12:15:45;23.10;79.50
28484;DHT22;15704;48.834;8.736;2023-07-13T12:18:21;23.10;77.60
28484;DHT22;15704;48.834;8.736;2023-07-13T12:20:49;23.10;78.50
28484;DHT22;15704;48.834;8.736;2023-07-13T12:25:52;23.10;78.80
28484;DHT22;15704;48.834;8.736;2023-07-13T12:28:36;23.10;77.80
28484;DHT22;15704;48.834;8.736;2023-07-13T12:31:06;22.90;76.50
28484;DHT22;15704;48.834;8.736;2023-07-13T12:33:34;22.90;77.50
28484;DHT22;15704;48.834;8.736;2023-07-13T12:36:03;22.90;77.60
28484;DHT22;15704;48.834;8.736;2023-07-13T12:38:31;22.80;78.60
28484;DHT22;15704;48.834;8.736;2023-07-13T12:40:59;22.90;77.90
28484;DHT22;15704;48.834;8.736;2023-07-13T12:43:33;23.10;79.40
28484;DHT22;15704;48.834;8.736;2023-07-13T12:46:14;23.20;80.10
28484;DHT22;15704;48.834;8.736;2023-07-13T12:48:43;23.00;78.20
28484;DHT22;15704;48.834;8.736;2023-07-13T12:51:26;23.10;80.00
28484;DHT22;15704;48.834;8.736;2023-07-13T12:54:05;23.20;79.90
28484;DHT22;15704;48.834;8.736;2023-07-13T12:56:32;23.30;79.20
28484;DHT22;15704;48.834;8.736;2023-07-13T12:59:03;23.10;78.00
28484;DHT22;15704;48.834;8.736;2023-07-13T13:01:33;23.20;78.80
28484;DHT22;15704;48.834;8.736;2023-07-13T13:04:02;23.40;77.10
28484;DHT22;15704;48.834;8.736;2023-07-13T13:06:33;23.30;76.40
28484;DHT22;15704;48.834;8.736;2023-07-13T13:09:02;23.60;75.10
28484;DHT22;15704;48.834;8.736;2023-07-13T13:11:31;23.50;75.40
28484;DHT22;15704;48.834;8.736;2023-07-13T13:13:58;23.80;77.40
28484;DHT22;15704;48.834;8.736;2023-07-13T13:16:31;23.80;76.90
28484;DHT22;15704;48.834;8.736;2023-07-13T13:19:02;23.80;76.60
28484;DHT22;15704;48.834;8.736;2023-07-13T13:21:30;23.90;75.00
28484;DHT22;15704;48.834;8.736;2023-07-13T13:23:59;24.10;77.60
28484;DHT22;15704;48.834;8.736;2023-07-13T13:26:25;23.90;77.50
28484;DHT22;15704;48.834;8.736;2023-07-13T13:28:52;24.10;79.30
28484;DHT22;15704;48.834;8.736;2023-07-13T13:31:20;24.00;79.00
28484;DHT22;15704;48.834;8.736;2023-07-13T13:33:46;23.80;78.20
28484;DHT22;15704;48.834;8.736;2023-07-13T13:36:22;23.60;79.20
28484;DHT22;15704;48.834;8.736;2023-07-13T13:38:50;23.50;79.20
28484;DHT22;15704;48.834;8.736;2023-07-13T13:41:17;23.20;79.00
28484;DHT22;15704;48.834;8.736;2023-07-13T13:43:44;23.00;79.10
28484;DHT22;15704;48.834;8.736;2023-07-13T13:46:15;23.30;79.80
28484;DHT22;15704;48.834;8.736;2023-07-13T13:48:44;23.40;78.20
28484;DHT22;15704;48.834;8.736;2023-07-13T13:51:14;23.60;78.80
28484;DHT22;15704;48.834;8.736;2023-07-13T13:53:42;23.80;79.30
28484;DHT22;15704;48.834;8.736;2023-07-13T13:56:09;23.90;78.40
28484;DHT22;15704;48.834;8.736;2023-07-13T13:58:36;24.00;78.70
28484;DHT22;15704;48.834;8.736;2023-07-13T14:01:03;24.10;76.60
28484;DHT22;15704;48.834;8.736;2023-07-13T14:03:34;24.10;77.80
28484;DHT22;15704;48.834;8.736;2023-07-13T14:06:01;24.20;77.70
28484;DHT22;15704;48.834;8.736;2023-07-13T14:08:28;24.30;76.80
28484;DHT22;15704;48.834;8.736;2023-07-13T14:10:57;24.10;78.10
28484;DHT22;15704;48.834;8.736;2023-07-13T14:13:32;23.80;75.80
28484;DHT22;15704;48.834;8.736;2023-07-13T14:16:01;23.90;75.20
28484;DHT22;15704;48.834;8.736;2023-07-13T14:18:28;23.80;75.80
28484;DHT22;15704;48.834;8.736;2023-07-13T14:20:55;24.00;76.90
28484;DHT22;15704;48.834;8.736;2023-07-13T14:23:21;23.90;77.10
28484;DHT22;15704;48.834;8.736;2023-07-13T14:25:48;23.90;78.10
28484;DHT22;15704;48.834;8.736;2023-07-13T14:28:25;24.10;78.60
28484;DHT22;15704;48.834;8.736;2023-07-13T14:30:53;24.30;78.10
28484;DHT22;15704;48.834;8.736;2023-07-13T14:33:21;24.30;75.30
28484;DHT22;15704;48.834;8.736;2023-07-13T14:35:50;24.40;76.30
28484;DHT22;15704;48.834;8.736;2023-07-13T14:38:19;24.20;78.20
28484;DHT22;15704;48.834;8.736;2023-07-13T14:40:46;24.00;76.60
28484;DHT22;15704;48.834;8.736;2023-07-13T14:43:17;24.00;78.50
28484;DHT22;15704;48.834;8.736;2023-07-13T14:45:47;23.90;77.90
28484;DHT22;15704;48.834;8.736;2023-07-13T14:48:21;24.00;77.30
28484;DHT22;15704;48.834;8.736;2023-07-13T14:50:55;23.60;77.10
28484;DHT22;15704;48.834;8.736;2023-07-13T14:53:24;23.70;77.40
28484;DHT22;15704;48.834;8.736;2023-07-13T14:55:51;23.90;75.80
28484;DHT22;15704;48.834;8.736;2023-07-13T14:58:18;23.90;75.70
28484;DHT22;15704;48.834;8.736;2023-07-13T15:00:45;24.00;77.00
28484;DHT22;15704;48.834;8.736;2023-07-13T15:03:21;24.10;76.40
28484;DHT22;15704;48.834;8.736;2023-07-13T15:05:49;23.70;75.00
28484;DHT22;15704;48.834;8.736;2023-07-13T15:08:16;23.60;75.90
28484;DHT22;15704;48.834;8.736;2023-07-13T15:10:43;23.20;76.10
28484;DHT22;15704;48.834;8.736;2023-07-13T15:15:42;23.10;76.50
28484;DHT22;15704;48.834;8.736;2023-07-13T15:18:11;23.10;77.60
28484;DHT22;15704;48.834;8.736;2023-07-13T15:20:38;23.30;76.90
28484;DHT22;15704;48.834;8.736;2023-07-13T15:23:05;23.30;77.60
28484;DHT22;15704;48.834;8.736;2023-07-13T15:25:33;23.40;78.40
28484;DHT22;15704;48.834;8.736;2023-07-13T15:28:01;23.40;76.00
28484;DHT22;15704;48.834;8.736;2023-07-13T15:30:36;23.50;75.50
28484;DHT22;15704;48.834;8.736;2023-07-13T15:35:38;23.50;77.20
28484;DHT22;15704;48.834;8.736;2023-07-13T15:38:20;23.60;76.70
28484;DHT22;15704;48.834;8.736;2023-07-13T15:40:48;23.60;76.70
28484;DHT22;15704;48.834;8.736;2023-07-13T15:43:17;23.70;76.40
28484;DHT22;15704;48.834;8.736;2023-07-13T15:45:46;23.80;75.30
28484;DHT22;15704;48.834;8.736;2023-07-13T15:48:14;23.70;76.50
28484;DHT22;15704;48.834;8.736;2023-07-13T15:50:45;23.80;76.40
28484;DHT22;15704;48.834;8.736;2023-07-13T15:53:12;23.50;77.50
28484;DHT22;15704;48.834;8.736;2023-07-13T15:55:39;23.80;78.00
28484;DHT22;15704;48.834;8.736;2023-07-13T15:58:11;24.00;77.80
28484;DHT22;15704;48.834;8.736;2023-07-13T16:00:38;23.60;76.70
28484;DHT22;15704;48.834;8.736;2023-07-13T16:03:08;23.30;76.60
28484;DHT22;15704;48.834;8.736;2023-07-13T16:05:35;22.90;77.10
28484;DHT22;15704;48.834;8.736;2023-07-13T16:08:05;22.90;77.80
28484;DHT22;15704;48.834;8.736;2023-07-13T16:10:35;23.10;77.80
28484;DHT22;15704;48.834;8.736;2023-07-13T16:13:04;23.50;76.60
28484;DHT22;15704;48.834;8.736;2023-07-13T16:15:31;23.60;76.60
28484;DHT22;15704;48.834;8.736;2023-07-13T16:17:58;23.70;75.10
28484;DHT22;15704;48.834;8.736;2023-07-13T16:20:25;23.90;75.80
28484;DHT22;15704;48.834;8.736;2023-07-13T16:22:53;23.80;75.90
28484;DHT22;15704;48.834;8.736;2023-07-13T16:25:24;23.50;76.20